sensor_id;sensor_type;location;lat;lon;timestamp;P1;durP1;ratioP1;P2;durP2;ratioP2
15256;SDS011;7731;50.720;6.912;2023-08-06T00:02:13;5.75;;;2.10;;
15256;SDS011;7731;50.720;6.912;2023-08-06T00:04:44;2.28;;;1.90;;
15256;SDS011;7731;50.720;6.912;2023-08-06T00:07:14;2.05;;;1.85;;
15256;SDS011;7731;50.720;6.912;2023-08-06T00:09:47;2.35;;;1.88;;
15256;SDS011;7731;50.720;6.912;2023-08-06T00:12:17;2.58;;;2.00;;
15256;SDS011;7731;50.720;6.912;2023-08-06T00:14:49;3.00;;;2.40;;
15256;SDS011;7731;50.720;6.912;2023-08-06T00:17:20;2.47;;;2.10;;
15256;SDS011;7731;50.720;6.912;2023-08-06T00:19:53;2.85;;;2.15;;
15256;SDS011;7731;50.720;6.912;2023-08-06T00:22:31;2.42;;;1.90;;
15256;SDS011;7731;50.720;6.912;2023-08-06T00:25:04;2.00;;;1.80;;
15256;SDS011;7731;50.720;6.912;2023-08-06T00:27:38;3.20;;;1.92;;
15256;SDS011;7731;50.720;6.912;2023-08-06T00:30:09;2.28;;;2.00;;
15256;SDS011;7731;50.720;6.912;2023-08-06T00:32:40;2.70;;;1.98;;
15256;SDS011;7731;50.720;6.912;2023-08-06T00:35:11;3.30;;;2.10;;
15256;SDS011;7731;50.720;6.912;2023-08-06T00:37:44;2.38;;;2.00;;
15256;SDS011;7731;50.720;6.912;2023-08-06T00:40:27;2.10;;;1.80;;
15256;SDS011;7731;50.720;6.912;2023-08-06T00:42:58;3.75;;;2.22;;
15256;SDS011;7731;50.720;6.912;2023-08-06T00:45:28;2.72;;;1.88;;
15256;SDS011;7731;50.720;6.912;2023-08-06T00:48:05;3.95;;;1.77;;
15256;SDS011;7731;50.720;6.912;2023-08-06T00:50:36;3.10;;;2.30;;
15256;SDS011;7731;50.720;6.912;2023-08-06T00:53:07;2.60;;;2.08;;
15256;SDS011;7731;50.720;6.912;2023-08-06T00:55:40;2.70;;;1.80;;
15256;SDS011;7731;50.720;6.912;2023-08-06T00:58:16;2.30;;;2.10;;
15256;SDS011;7731;50.720;6.912;2023-08-06T01:00:48;1.92;;;1.83;;
15256;SDS011;7731;50.720;6.912;2023-08-06T01:03:21;2.63;;;2.00;;
15256;SDS011;7731;50.720;6.912;2023-08-06T01:05:54;1.95;;;1.77;;
15256;SDS011;7731;50.720;6.912;2023-08-06T01:08:30;2.55;;;1.95;;
15256;SDS011;7731;50.720;6.912;2023-08-06T01:11:17;2.30;;;1.95;;
15256;SDS011;7731;50.720;6.912;2023-08-06T01:14:02;2.45;;;2.03;;
15256;SDS011;7731;50.720;6.912;2023-08-06T01:16:43;2.47;;;1.88;;
15256;SDS011;7731;50.720;6.912;2023-08-06T01:19:16;3.33;;;2.15;;
15256;SDS011;7731;50.720;6.912;2023-08-06T01:21:50;2.25;;;1.92;;
15256;SDS011;7731;50.720;6.912;2023-08-06T01:24:20;2.13;;;1.60;;
15256;SDS011;7731;50.720;6.912;2023-08-06T01:26:54;4.05;;;1.83;;
15256;SDS011;7731;50.720;6.912;2023-08-06T01:29:39;2.80;;;1.60;;
15256;SDS011;7731;50.720;6.912;2023-08-06T01:32:16;2.25;;;1.70;;
15256;SDS011;7731;50.720;6.912;2023-08-06T01:34:50;3.20;;;1.70;;
15256;SDS011;7731;50.720;6.912;2023-08-06T01:37:32;1.70;;;1.60;;
15256;SDS011;7731;50.720;6.912;2023-08-06T01:40:05;1.73;;;1.63;;
15256;SDS011;7731;50.720;6.912;2023-08-06T01:42:39;2.50;;;1.80;;
15256;SDS011;7731;50.720;6.912;2023-08-06T01:45:12;2.70;;;1.80;;
15256;SDS011;7731;50.720;6.912;2023-08-06T01:47:43;2.45;;;1.80;;
15256;SDS011;7731;50.720;6.912;2023-08-06T01:50:14;3.38;;;1.77;;
15256;SDS011;7731;50.720;6.912;2023-08-06T01:52:49;2.88;;;1.80;;
15256;SDS011;7731;50.720;6.912;2023-08-06T01:55:24;3.25;;;1.83;;
15256;SDS011;7731;50.720;6.912;2023-08-06T01:57:54;2.72;;;1.95;;
15256;SDS011;7731;50.720;6.912;2023-08-06T02:00:25;3.97;;;2.03;;
15256;SDS011;7731;50.720;6.912;2023-08-06T02:03:01;2.28;;;1.70;;
15256;SDS011;7731;50.720;6.912;2023-08-06T02:05:39;1.90;;;1.75;;
15256;SDS011;7731;50.720;6.912;2023-08-06T02:08:12;3.22;;;1.67;;
15256;SDS011;7731;50.720;6.912;2023-08-06T02:10:46;3.67;;;1.92;;
15256;SDS011;7731;50.720;6.912;2023-08-06T02:13:16;3.22;;;1.70;;
15256;SDS011;7731;50.720;6.912;2023-08-06T02:15:46;2.97;;;1.95;;
15256;SDS011;7731;50.720;6.912;2023-08-06T02:18:17;4.53;;;2.00;;
15256;SDS011;7731;50.720;6.912;2023-08-06T02:20:54;2.22;;;1.50;;
15256;SDS011;7731;50.720;6.912;2023-08-06T02:23:28;3.30;;;1.67;;
15256;SDS011;7731;50.720;6.912;2023-08-06T02:25:59;3.20;;;1.83;;
15256;SDS011;7731;50.720;6.912;2023-08-06T02:28:31;2.67;;;1.85;;
15256;SDS011;7731;50.720;6.912;2023-08-06T02:31:02;4.55;;;1.90;;
15256;SDS011;7731;50.720;6.912;2023-08-06T02:33:33;3.47;;;1.80;;
15256;SDS011;7731;50.720;6.912;2023-08-06T02:36:04;3.70;;;1.90;;
15256;SDS011;7731;50.720;6.912;2023-08-06T02:38:36;4.07;;;1.75;;
15256;SDS011;7731;50.720;6.912;2023-08-06T02:41:10;4.45;;;1.85;;
15256;SDS011;7731;50.720;6.912;2023-08-06T02:43:40;3.20;;;2.15;;
15256;SDS011;7731;50.720;6.912;2023-08-06T02:46:10;3.33;;;1.67;;
15256;SDS011;7731;50.720;6.912;2023-08-06T02:48:41;2.28;;;1.92;;
15256;SDS011;7731;50.720;6.912;2023-08-06T02:51:11;3.85;;;1.80;;
15256;SDS011;7731;50.720;6.912;2023-08-06T02:53:47;3.50;;;1.90;;
15256;SDS011;7731;50.720;6.912;2023-08-06T02:56:18;2.70;;;1.70;;
15256;SDS011;7731;50.720;6.912;2023-08-06T03:02:21;3.13;;;2.00;;
15256;SDS011;7731;50.720;6.912;2023-08-06T03:04:51;6.05;;;1.80;;
15256;SDS011;7731;50.720;6.912;2023-08-06T03:07:22;3.22;;;1.90;;
15256;SDS011;7731;50.720;6.912;2023-08-06T03:09:58;2.20;;;1.70;;
15256;SDS011;7731;50.720;6.912;2023-08-06T03:12:32;5.28;;;2.03;;
15256;SDS011;7731;50.720;6.912;2023-08-06T03:15:03;4.38;;;2.33;;
15256;SDS011;7731;50.720;6.912;2023-08-06T03:17:35;3.95;;;2.20;;
15256;SDS011;7731;50.720;6.912;2023-08-06T03:20:06;2.35;;;1.80;;
15256;SDS011;7731;50.720;6.912;2023-08-06T03:22:37;2.28;;;1.77;;
15256;SDS011;7731;50.720;6.912;2023-08-06T03:25:10;3.72;;;1.80;;
15256;SDS011;7731;50.720;6.912;2023-08-06T03:27:40;3.20;;;1.85;;
15256;SDS011;7731;50.720;6.912;2023-08-06T03:30:11;4.85;;;1.90;;
15256;SDS011;7731;50.720;6.912;2023-08-06T03:32:41;2.25;;;1.45;;
15256;SDS011;7731;50.720;6.912;2023-08-06T03:35:11;6.18;;;1.65;;
15256;SDS011;7731;50.720;6.912;2023-08-06T03:37:42;3.25;;;1.90;;
15256;SDS011;7731;50.720;6.912;2023-08-06T03:40:17;3.22;;;1.77;;
15256;SDS011;7731;50.720;6.912;2023-08-06T03:42:47;3.45;;;1.83;;
15256;SDS011;7731;50.720;6.912;2023-08-06T03:45:18;2.63;;;1.92;;
15256;SDS011;7731;50.720;6.912;2023-08-06T03:47:51;2.38;;;1.48;;
15256;SDS011;7731;50.720;6.912;2023-08-06T03:50:24;2.80;;;1.67;;
15256;SDS011;7731;50.720;6.912;2023-08-06T03:52:54;3.65;;;1.77;;
15256;SDS011;7731;50.720;6.912;2023-08-06T03:55:27;5.18;;;1.90;;
15256;SDS011;7731;50.720;6.912;2023-08-06T03:58:00;2.58;;;1.58;;
15256;SDS011;7731;50.720;6.912;2023-08-06T04:00:30;4.38;;;1.73;;
15256;SDS011;7731;50.720;6.912;2023-08-06T04:03:06;2.95;;;1.70;;
15256;SDS011;7731;50.720;6.912;2023-08-06T04:05:40;2.15;;;1.60;;
15256;SDS011;7731;50.720;6.912;2023-08-06T04:08:10;2.35;;;1.50;;
15256;SDS011;7731;50.720;6.912;2023-08-06T04:10:45;2.85;;;1.90;;
15256;SDS011;7731;50.720;6.912;2023-08-06T04:13:19;5.88;;;3.47;;
15256;SDS011;7731;50.720;6.912;2023-08-06T04:15:49;2.15;;;1.60;;
15256;SDS011;7731;50.720;6.912;2023-08-06T04:18:23;3.80;;;1.75;;
15256;SDS011;7731;50.720;6.912;2023-08-06T04:20:56;2.88;;;1.60;;
15256;SDS011;7731;50.720;6.912;2023-08-06T04:23:30;1.85;;;1.35;;
15256;SDS011;7731;50.720;6.912;2023-08-06T04:26:05;3.38;;;1.50;;
15256;SDS011;7731;50.720;6.912;2023-08-06T04:28:38;4.07;;;1.60;;
15256;SDS011;7731;50.720;6.912;2023-08-06T04:31:08;2.85;;;1.70;;
15256;SDS011;7731;50.720;6.912;2023-08-06T04:33:39;2.53;;;1.90;;
15256;SDS011;7731;50.720;6.912;2023-08-06T04:36:09;3.05;;;1.40;;
15256;SDS011;7731;50.720;6.912;2023-08-06T04:38:41;6.05;;;1.60;;
15256;SDS011;7731;50.720;6.912;2023-08-06T04:41:19;1.83;;;1.63;;
15256;SDS011;7731;50.720;6.912;2023-08-06T04:43:50;3.55;;;1.92;;
15256;SDS011;7731;50.720;6.912;2023-08-06T04:46:20;2.95;;;1.90;;
15256;SDS011;7731;50.720;6.912;2023-08-06T04:48:50;2.17;;;1.88;;
15256;SDS011;7731;50.720;6.912;2023-08-06T04:51:21;2.00;;;1.50;;
15256;SDS011;7731;50.720;6.912;2023-08-06T04:53:53;3.05;;;1.70;;
15256;SDS011;7731;50.720;6.912;2023-08-06T04:56:28;1.95;;;1.50;;
15256;SDS011;7731;50.720;6.912;2023-08-06T04:59:02;2.47;;;1.63;;
15256;SDS011;7731;50.720;6.912;2023-08-06T05:01:34;2.53;;;1.63;;
15256;SDS011;7731;50.720;6.912;2023-08-06T05:04:07;3.33;;;1.80;;
15256;SDS011;7731;50.720;6.912;2023-08-06T05:06:37;2.00;;;1.70;;
15256;SDS011;7731;50.720;6.912;2023-08-06T05:09:07;2.05;;;1.35;;
15256;SDS011;7731;50.720;6.912;2023-08-06T05:11:40;2.53;;;1.65;;
15256;SDS011;7731;50.720;6.912;2023-08-06T05:14:20;1.75;;;1.60;;
15256;SDS011;7731;50.720;6.912;2023-08-06T05:16:50;2.78;;;1.20;;
15256;SDS011;7731;50.720;6.912;2023-08-06T05:19:20;3.97;;;1.65;;
15256;SDS011;7731;50.720;6.912;2023-08-06T05:21:51;2.47;;;1.80;;
15256;SDS011;7731;50.720;6.912;2023-08-06T05:24:21;4.22;;;1.60;;
15256;SDS011;7731;50.720;6.912;2023-08-06T05:26:56;4.13;;;2.05;;
15256;SDS011;7731;50.720;6.912;2023-08-06T05:29:27;4.50;;;1.83;;
15256;SDS011;7731;50.720;6.912;2023-08-06T05:31:57;1.90;;;1.40;;
15256;SDS011;7731;50.720;6.912;2023-08-06T05:34:28;2.15;;;1.85;;
15256;SDS011;7731;50.720;6.912;2023-08-06T05:36:58;3.78;;;1.88;;
15256;SDS011;7731;50.720;6.912;2023-08-06T05:39:28;2.38;;;1.80;;
15256;SDS011;7731;50.720;6.912;2023-08-06T05:42:04;3.30;;;1.83;;
15256;SDS011;7731;50.720;6.912;2023-08-06T05:44:35;1.80;;;1.38;;
15256;SDS011;7731;50.720;6.912;2023-08-06T05:47:12;2.63;;;1.42;;
15256;SDS011;7731;50.720;6.912;2023-08-06T05:49:42;2.15;;;1.42;;
15256;SDS011;7731;50.720;6.912;2023-08-06T05:52:12;1.58;;;1.40;;
15256;SDS011;7731;50.720;6.912;2023-08-06T05:54:46;2.20;;;1.60;;
15256;SDS011;7731;50.720;6.912;2023-08-06T05:57:19;1.88;;;1.50;;
15256;SDS011;7731;50.720;6.912;2023-08-06T05:59:49;2.17;;;1.42;;
15256;SDS011;7731;50.720;6.912;2023-08-06T06:02:22;1.38;;;1.23;;
15256;SDS011;7731;50.720;6.912;2023-08-06T06:04:53;2.38;;;1.20;;
15256;SDS011;7731;50.720;6.912;2023-08-06T06:07:23;1.67;;;1.10;;
15256;SDS011;7731;50.720;6.912;2023-08-06T06:09:53;2.58;;;1.40;;
15256;SDS011;7731;50.720;6.912;2023-08-06T06:12:26;4.90;;;1.10;;
15256;SDS011;7731;50.720;6.912;2023-08-06T06:14:56;1.58;;;1.17;;
15256;SDS011;7731;50.720;6.912;2023-08-06T06:17:29;1.63;;;0.82;;
15256;SDS011;7731;50.720;6.912;2023-08-06T06:19:59;2.03;;;0.95;;
15256;SDS011;7731;50.720;6.912;2023-08-06T06:22:30;1.60;;;1.20;;
15256;SDS011;7731;50.720;6.912;2023-08-06T06:25:01;1.65;;;0.98;;
15256;SDS011;7731;50.720;6.912;2023-08-06T06:27:33;2.08;;;1.17;;
15256;SDS011;7731;50.720;6.912;2023-08-06T06:30:07;1.42;;;1.05;;
15256;SDS011;7731;50.720;6.912;2023-08-06T06:32:39;1.65;;;1.20;;
15256;SDS011;7731;50.720;6.912;2023-08-06T06:35:10;1.58;;;1.10;;
15256;SDS011;7731;50.720;6.912;2023-08-06T06:37:40;1.23;;;0.90;;
15256;SDS011;7731;50.720;6.912;2023-08-06T06:40:10;2.08;;;0.90;;
15256;SDS011;7731;50.720;6.912;2023-08-06T06:42:53;1.10;;;0.95;;
15256;SDS011;7731;50.720;6.912;2023-08-06T06:45:24;3.95;;;1.27;;
15256;SDS011;7731;50.720;6.912;2023-08-06T06:48:00;0.90;;;0.73;;
15256;SDS011;7731;50.720;6.912;2023-08-06T06:50:46;1.10;;;0.88;;
15256;SDS011;7731;50.720;6.912;2023-08-06T06:53:17;3.08;;;0.90;;
15256;SDS011;7731;50.720;6.912;2023-08-06T06:55:52;1.02;;;0.88;;
15256;SDS011;7731;50.720;6.912;2023-08-06T06:58:25;1.23;;;0.77;;
15256;SDS011;7731;50.720;6.912;2023-08-06T07:00:56;0.98;;;0.85;;
15256;SDS011;7731;50.720;6.912;2023-08-06T07:03:28;1.52;;;0.70;;
15256;SDS011;7731;50.720;6.912;2023-08-06T07:05:58;2.53;;;0.85;;
15256;SDS011;7731;50.720;6.912;2023-08-06T07:08:30;1.58;;;0.80;;
15256;SDS011;7731;50.720;6.912;2023-08-06T07:11:01;2.72;;;1.20;;
15256;SDS011;7731;50.720;6.912;2023-08-06T07:13:38;1.58;;;0.90;;
15256;SDS011;7731;50.720;6.912;2023-08-06T07:16:08;0.85;;;0.80;;
15256;SDS011;7731;50.720;6.912;2023-08-06T07:18:39;1.08;;;0.80;;
15256;SDS011;7731;50.720;6.912;2023-08-06T07:21:09;1.73;;;0.88;;
15256;SDS011;7731;50.720;6.912;2023-08-06T07:23:39;1.83;;;1.00;;
15256;SDS011;7731;50.720;6.912;2023-08-06T07:26:10;1.17;;;0.98;;
15256;SDS011;7731;50.720;6.912;2023-08-06T07:32:30;1.77;;;1.02;;
15256;SDS011;7731;50.720;6.912;2023-08-06T07:35:00;2.08;;;1.25;;
15256;SDS011;7731;50.720;6.912;2023-08-06T07:37:31;2.63;;;1.77;;
15256;SDS011;7731;50.720;6.912;2023-08-06T07:40:04;1.95;;;1.70;;
15256;SDS011;7731;50.720;6.912;2023-08-06T07:42:38;1.88;;;1.35;;
15256;SDS011;7731;50.720;6.912;2023-08-06T07:45:09;3.60;;;1.60;;
15256;SDS011;7731;50.720;6.912;2023-08-06T07:47:45;3.17;;;1.50;;
15256;SDS011;7731;50.720;6.912;2023-08-06T07:50:16;2.35;;;1.65;;
15256;SDS011;7731;50.720;6.912;2023-08-06T07:52:46;1.88;;;1.60;;
15256;SDS011;7731;50.720;6.912;2023-08-06T07:55:23;3.38;;;1.60;;
15256;SDS011;7731;50.720;6.912;2023-08-06T07:57:54;3.20;;;1.60;;
15256;SDS011;7731;50.720;6.912;2023-08-06T08:00:24;3.60;;;1.60;;
15256;SDS011;7731;50.720;6.912;2023-08-06T08:02:57;3.72;;;1.42;;
15256;SDS011;7731;50.720;6.912;2023-08-06T08:05:28;1.73;;;1.30;;
15256;SDS011;7731;50.720;6.912;2023-08-06T08:08:01;1.80;;;1.20;;
15256;SDS011;7731;50.720;6.912;2023-08-06T08:10:34;1.65;;;1.55;;
15256;SDS011;7731;50.720;6.912;2023-08-06T08:13:07;2.83;;;1.70;;
15256;SDS011;7731;50.720;6.912;2023-08-06T08:15:40;1.80;;;1.70;;
15256;SDS011;7731;50.720;6.912;2023-08-06T08:18:13;2.70;;;1.80;;
15256;SDS011;7731;50.720;6.912;2023-08-06T08:20:44;2.17;;;1.75;;
15256;SDS011;7731;50.720;6.912;2023-08-06T08:23:14;1.58;;;1.40;;
15256;SDS011;7731;50.720;6.912;2023-08-06T08:25:44;1.98;;;1.65;;
15256;SDS011;7731;50.720;6.912;2023-08-06T08:28:14;3.78;;;1.70;;
15256;SDS011;7731;50.720;6.912;2023-08-06T08:30:45;1.60;;;1.50;;
15256;SDS011;7731;50.720;6.912;2023-08-06T08:33:24;4.68;;;1.60;;
15256;SDS011;7731;50.720;6.912;2023-08-06T08:35:54;2.75;;;1.50;;
15256;SDS011;7731;50.720;6.912;2023-08-06T08:38:24;2.00;;;1.75;;
15256;SDS011;7731;50.720;6.912;2023-08-06T08:41:04;2.40;;;1.70;;
15256;SDS011;7731;50.720;6.912;2023-08-06T08:43:35;1.77;;;1.42;;
15256;SDS011;7731;50.720;6.912;2023-08-06T08:46:07;2.65;;;1.60;;
15256;SDS011;7731;50.720;6.912;2023-08-06T08:48:43;2.17;;;1.50;;
15256;SDS011;7731;50.720;6.912;2023-08-06T08:51:15;1.40;;;1.30;;
15256;SDS011;7731;50.720;6.912;2023-08-06T08:53:49;1.58;;;1.10;;
15256;SDS011;7731;50.720;6.912;2023-08-06T08:56:23;1.27;;;1.00;;
15256;SDS011;7731;50.720;6.912;2023-08-06T08:59:01;1.10;;;0.75;;
15256;SDS011;7731;50.720;6.912;2023-08-06T09:01:31;3.08;;;0.80;;
15256;SDS011;7731;50.720;6.912;2023-08-06T09:04:12;1.40;;;0.70;;
15256;SDS011;7731;50.720;6.912;2023-08-06T09:06:43;0.93;;;0.63;;
15256;SDS011;7731;50.720;6.912;2023-08-06T09:09:20;0.75;;;0.60;;
15256;SDS011;7731;50.720;6.912;2023-08-06T09:11:59;1.98;;;0.80;;
15256;SDS011;7731;50.720;6.912;2023-08-06T09:14:31;0.85;;;0.85;;
15256;SDS011;7731;50.720;6.912;2023-08-06T09:17:07;1.27;;;1.13;;
15256;SDS011;7731;50.720;6.912;2023-08-06T09:19:44;0.80;;;0.80;;
15256;SDS011;7731;50.720;6.912;2023-08-06T09:25:57;0.70;;;0.60;;
15256;SDS011;7731;50.720;6.912;2023-08-06T09:28:36;0.70;;;0.60;;
15256;SDS011;7731;50.720;6.912;2023-08-06T09:31:10;0.75;;;0.60;;
15256;SDS011;7731;50.720;6.912;2023-08-06T09:33:40;1.30;;;0.90;;
15256;SDS011;7731;50.720;6.912;2023-08-06T09:36:16;0.68;;;0.60;;
15256;SDS011;7731;50.720;6.912;2023-08-06T09:38:47;4.15;;;1.00;;
15256;SDS011;7731;50.720;6.912;2023-08-06T09:41:25;0.77;;;0.70;;
15256;SDS011;7731;50.720;6.912;2023-08-06T09:43:57;0.80;;;0.70;;
15256;SDS011;7731;50.720;6.912;2023-08-06T09:46:28;1.95;;;0.85;;
15256;SDS011;7731;50.720;6.912;2023-08-06T09:49:04;1.15;;;0.70;;
15256;SDS011;7731;50.720;6.912;2023-08-06T09:51:39;0.75;;;0.55;;
15256;SDS011;7731;50.720;6.912;2023-08-06T09:54:11;0.63;;;0.50;;
15256;SDS011;7731;50.720;6.912;2023-08-06T09:56:53;1.13;;;0.60;;
15256;SDS011;7731;50.720;6.912;2023-08-06T09:59:24;0.98;;;0.80;;
15256;SDS011;7731;50.720;6.912;2023-08-06T10:01:55;1.55;;;1.33;;
15256;SDS011;7731;50.720;6.912;2023-08-06T10:04:27;1.60;;;1.15;;
15256;SDS011;7731;50.720;6.912;2023-08-06T10:07:21;3.72;;;1.40;;
15256;SDS011;7731;50.720;6.912;2023-08-06T10:09:52;1.35;;;1.20;;
15256;SDS011;7731;50.720;6.912;2023-08-06T10:12:22;2.50;;;1.80;;
15256;SDS011;7731;50.720;6.912;2023-08-06T10:14:59;6.05;;;2.15;;
15256;SDS011;7731;50.720;6.912;2023-08-06T10:17:45;2.05;;;1.80;;
15256;SDS011;7731;50.720;6.912;2023-08-06T10:20:20;3.33;;;1.65;;
15256;SDS011;7731;50.720;6.912;2023-08-06T10:23:03;4.10;;;2.10;;
15256;SDS011;7731;50.720;6.912;2023-08-06T10:25:41;2.67;;;1.92;;
15256;SDS011;7731;50.720;6.912;2023-08-06T10:28:15;3.22;;;1.85;;
15256;SDS011;7731;50.720;6.912;2023-08-06T10:30:45;4.30;;;3.08;;
15256;SDS011;7731;50.720;6.912;2023-08-06T10:33:20;4.07;;;2.97;;
15256;SDS011;7731;50.720;6.912;2023-08-06T10:35:51;3.28;;;1.88;;
15256;SDS011;7731;50.720;6.912;2023-08-06T10:38:43;2.70;;;1.77;;
15256;SDS011;7731;50.720;6.912;2023-08-06T10:41:15;7.55;;;3.30;;
15256;SDS011;7731;50.720;6.912;2023-08-06T10:44:05;3.47;;;2.10;;
15256;SDS011;7731;50.720;6.912;2023-08-06T10:46:36;5.97;;;2.83;;
15256;SDS011;7731;50.720;6.912;2023-08-06T10:49:07;2.80;;;1.70;;
15256;SDS011;7731;50.720;6.912;2023-08-06T10:51:41;4.22;;;1.80;;
15256;SDS011;7731;50.720;6.912;2023-08-06T10:54:14;7.13;;;2.53;;
15256;SDS011;7731;50.720;6.912;2023-08-06T10:56:45;5.03;;;2.40;;
15256;SDS011;7731;50.720;6.912;2023-08-06T10:59:18;6.85;;;2.53;;
15256;SDS011;7731;50.720;6.912;2023-08-06T11:01:52;5.38;;;2.10;;
15256;SDS011;7731;50.720;6.912;2023-08-06T11:04:22;3.92;;;2.67;;
15256;SDS011;7731;50.720;6.912;2023-08-06T11:06:57;3.88;;;1.95;;
15256;SDS011;7731;50.720;6.912;2023-08-06T11:09:29;4.03;;;1.88;;
15256;SDS011;7731;50.720;6.912;2023-08-06T11:12:02;3.38;;;1.77;;
15256;SDS011;7731;50.720;6.912;2023-08-06T11:14:39;4.63;;;1.60;;
15256;SDS011;7731;50.720;6.912;2023-08-06T11:17:12;4.85;;;1.50;;
15256;SDS011;7731;50.720;6.912;2023-08-06T11:19:43;5.25;;;1.73;;
15256;SDS011;7731;50.720;6.912;2023-08-06T11:22:20;4.90;;;2.00;;
15256;SDS011;7731;50.720;6.912;2023-08-06T11:24:56;3.10;;;1.70;;
15256;SDS011;7731;50.720;6.912;2023-08-06T11:27:27;5.60;;;2.05;;
15256;SDS011;7731;50.720;6.912;2023-08-06T11:30:05;3.17;;;1.55;;
15256;SDS011;7731;50.720;6.912;2023-08-06T11:32:45;4.00;;;1.77;;
15256;SDS011;7731;50.720;6.912;2023-08-06T11:35:16;3.20;;;1.60;;
15256;SDS011;7731;50.720;6.912;2023-08-06T11:37:47;6.53;;;2.00;;
15256;SDS011;7731;50.720;6.912;2023-08-06T11:40:26;4.28;;;1.80;;
15256;SDS011;7731;50.720;6.912;2023-08-06T11:42:56;1.80;;;1.50;;
15256;SDS011;7731;50.720;6.912;2023-08-06T11:45:30;2.53;;;1.40;;
15256;SDS011;7731;50.720;6.912;2023-08-06T11:48:00;3.35;;;1.52;;
15256;SDS011;7731;50.720;6.912;2023-08-06T11:50:35;2.65;;;1.50;;
15256;SDS011;7731;50.720;6.912;2023-08-06T11:53:11;5.55;;;1.80;;
15256;SDS011;7731;50.720;6.912;2023-08-06T11:55:45;2.15;;;1.60;;
15256;SDS011;7731;50.720;6.912;2023-08-06T11:58:16;2.60;;;1.52;;
15256;SDS011;7731;50.720;6.912;2023-08-06T12:00:49;3.60;;;1.85;;
15256;SDS011;7731;50.720;6.912;2023-08-06T12:03:22;4.53;;;1.60;;
15256;SDS011;7731;50.720;6.912;2023-08-06T12:05:55;2.50;;;1.50;;
15256;SDS011;7731;50.720;6.912;2023-08-06T12:08:26;2.45;;;1.42;;
15256;SDS011;7731;50.720;6.912;2023-08-06T12:11:06;3.15;;;1.58;;
15256;SDS011;7731;50.720;6.912;2023-08-06T12:13:37;4.35;;;1.65;;
15256;SDS011;7731;50.720;6.912;2023-08-06T12:16:10;3.65;;;1.60;;
15256;SDS011;7731;50.720;6.912;2023-08-06T12:18:40;4.90;;;1.45;;
15256;SDS011;7731;50.720;6.912;2023-08-06T12:21:10;3.20;;;1.55;;
15256;SDS011;7731;50.720;6.912;2023-08-06T12:23:41;3.45;;;1.58;;
15256;SDS011;7731;50.720;6.912;2023-08-06T12:26:17;3.33;;;1.25;;
15256;SDS011;7731;50.720;6.912;2023-08-06T12:28:47;2.95;;;1.27;;
15256;SDS011;7731;50.720;6.912;2023-08-06T12:31:21;3.22;;;1.75;;
15256;SDS011;7731;50.720;6.912;2023-08-06T12:33:51;4.85;;;1.50;;
15256;SDS011;7731;50.720;6.912;2023-08-06T12:36:28;3.95;;;1.55;;
15256;SDS011;7731;50.720;6.912;2023-08-06T12:38:58;2.80;;;1.27;;
15256;SDS011;7731;50.720;6.912;2023-08-06T12:41:43;2.63;;;1.23;;
15256;SDS011;7731;50.720;6.912;2023-08-06T12:44:14;2.75;;;1.63;;
15256;SDS011;7731;50.720;6.912;2023-08-06T12:46:52;2.42;;;1.20;;
15256;SDS011;7731;50.720;6.912;2023-08-06T12:49:22;1.08;;;1.02;;
15256;SDS011;7731;50.720;6.912;2023-08-06T12:51:55;1.50;;;0.88;;
15256;SDS011;7731;50.720;6.912;2023-08-06T12:54:29;2.17;;;0.90;;
15256;SDS011;7731;50.720;6.912;2023-08-06T12:57:06;1.73;;;0.80;;
15256;SDS011;7731;50.720;6.912;2023-08-06T12:59:36;1.10;;;0.80;;
15256;SDS011;7731;50.720;6.912;2023-08-06T13:02:06;1.20;;;0.90;;
15256;SDS011;7731;50.720;6.912;2023-08-06T13:04:36;2.35;;;0.95;;
15256;SDS011;7731;50.720;6.912;2023-08-06T13:07:07;0.80;;;0.80;;
15256;SDS011;7731;50.720;6.912;2023-08-06T13:09:40;1.67;;;0.60;;
15256;SDS011;7731;50.720;6.912;2023-08-06T13:12:16;0.90;;;0.50;;
15256;SDS011;7731;50.720;6.912;2023-08-06T13:14:58;1.35;;;0.70;;
15256;SDS011;7731;50.720;6.912;2023-08-06T13:17:28;1.58;;;0.80;;
15256;SDS011;7731;50.720;6.912;2023-08-06T13:20:02;1.85;;;1.02;;
15256;SDS011;7731;50.720;6.912;2023-08-06T13:22:34;2.40;;;1.23;;
15256;SDS011;7731;50.720;6.912;2023-08-06T13:25:05;2.70;;;1.73;;
15256;SDS011;7731;50.720;6.912;2023-08-06T13:27:46;3.33;;;1.40;;
15256;SDS011;7731;50.720;6.912;2023-08-06T13:30:16;3.17;;;1.70;;
15256;SDS011;7731;50.720;6.912;2023-08-06T13:32:47;3.47;;;1.75;;
15256;SDS011;7731;50.720;6.912;2023-08-06T13:35:17;2.63;;;2.10;;
15256;SDS011;7731;50.720;6.912;2023-08-06T13:37:47;2.53;;;1.65;;
15256;SDS011;7731;50.720;6.912;2023-08-06T13:40:18;2.67;;;1.70;;
15256;SDS011;7731;50.720;6.912;2023-08-06T13:45:42;2.00;;;1.55;;
15256;SDS011;7731;50.720;6.912;2023-08-06T13:48:15;3.80;;;1.73;;
15256;SDS011;7731;50.720;6.912;2023-08-06T13:50:46;4.03;;;1.40;;
15256;SDS011;7731;50.720;6.912;2023-08-06T13:53:16;3.05;;;1.35;;
15256;SDS011;7731;50.720;6.912;2023-08-06T13:55:46;2.83;;;1.25;;
15256;SDS011;7731;50.720;6.912;2023-08-06T13:58:19;1.85;;;1.20;;
15256;SDS011;7731;50.720;6.912;2023-08-06T14:00:50;4.05;;;1.20;;
15256;SDS011;7731;50.720;6.912;2023-08-06T14:03:21;1.20;;;0.90;;
15256;SDS011;7731;50.720;6.912;2023-08-06T14:05:51;2.78;;;1.38;;
15256;SDS011;7731;50.720;6.912;2023-08-06T14:08:23;2.28;;;1.20;;
15256;SDS011;7731;50.720;6.912;2023-08-06T14:10:56;1.67;;;0.93;;
15256;SDS011;7731;50.720;6.912;2023-08-06T14:13:29;1.52;;;0.98;;
15256;SDS011;7731;50.720;6.912;2023-08-06T14:15:59;1.92;;;1.00;;
15256;SDS011;7731;50.720;6.912;2023-08-06T14:18:30;1.88;;;0.80;;
15256;SDS011;7731;50.720;6.912;2023-08-06T14:21:00;1.55;;;0.80;;
15256;SDS011;7731;50.720;6.912;2023-08-06T14:23:30;1.85;;;0.80;;
15256;SDS011;7731;50.720;6.912;2023-08-06T14:26:03;1.92;;;0.80;;
15256;SDS011;7731;50.720;6.912;2023-08-06T14:28:36;1.02;;;0.80;;
15256;SDS011;7731;50.720;6.912;2023-08-06T14:31:07;1.58;;;0.80;;
15256;SDS011;7731;50.720;6.912;2023-08-06T14:33:39;2.10;;;0.90;;
15256;SDS011;7731;50.720;6.912;2023-08-06T14:36:11;1.73;;;1.00;;
15256;SDS011;7731;50.720;6.912;2023-08-06T14:38:50;1.85;;;0.60;;
15256;SDS011;7731;50.720;6.912;2023-08-06T14:41:26;1.83;;;0.70;;
15256;SDS011;7731;50.720;6.912;2023-08-06T14:43:59;0.98;;;0.63;;
15256;SDS011;7731;50.720;6.912;2023-08-06T14:46:29;1.88;;;0.65;;
15256;SDS011;7731;50.720;6.912;2023-08-06T14:52:35;1.75;;;0.50;;
15256;SDS011;7731;50.720;6.912;2023-08-06T14:55:06;0.95;;;0.45;;
15256;SDS011;7731;50.720;6.912;2023-08-06T14:57:37;1.85;;;0.50;;
15256;SDS011;7731;50.720;6.912;2023-08-06T15:00:10;0.90;;;0.50;;
15256;SDS011;7731;50.720;6.912;2023-08-06T15:02:42;1.15;;;0.50;;
15256;SDS011;7731;50.720;6.912;2023-08-06T15:05:12;1.85;;;0.40;;
15256;SDS011;7731;50.720;6.912;2023-08-06T15:07:52;0.60;;;0.60;;
15256;SDS011;7731;50.720;6.912;2023-08-06T15:10:31;1.30;;;0.80;;
15256;SDS011;7731;50.720;6.912;2023-08-06T15:13:01;0.95;;;0.60;;
15256;SDS011;7731;50.720;6.912;2023-08-06T15:15:35;0.93;;;0.50;;
15256;SDS011;7731;50.720;6.912;2023-08-06T15:18:08;1.00;;;0.70;;
15256;SDS011;7731;50.720;6.912;2023-08-06T15:20:42;1.38;;;0.68;;
15256;SDS011;7731;50.720;6.912;2023-08-06T15:23:14;0.52;;;0.52;;
15256;SDS011;7731;50.720;6.912;2023-08-06T15:25:45;0.50;;;0.50;;
15256;SDS011;7731;50.720;6.912;2023-08-06T15:28:15;0.50;;;0.50;;
15256;SDS011;7731;50.720;6.912;2023-08-06T15:30:51;1.27;;;0.82;;
15256;SDS011;7731;50.720;6.912;2023-08-06T15:33:23;1.10;;;0.85;;
15256;SDS011;7731;50.720;6.912;2023-08-06T15:35:54;1.50;;;0.88;;
15256;SDS011;7731;50.720;6.912;2023-08-06T15:38:27;0.82;;;0.80;;
15256;SDS011;7731;50.720;6.912;2023-08-06T15:40:57;1.63;;;0.80;;
15256;SDS011;7731;50.720;6.912;2023-08-06T15:43:30;2.22;;;0.80;;
15256;SDS011;7731;50.720;6.912;2023-08-06T15:46:03;1.52;;;0.90;;
15256;SDS011;7731;50.720;6.912;2023-08-06T15:48:33;1.98;;;0.88;;
15256;SDS011;7731;50.720;6.912;2023-08-06T15:51:03;1.70;;;0.70;;
15256;SDS011;7731;50.720;6.912;2023-08-06T15:53:42;2.38;;;0.73;;